Preston, Connecticut
Current Conditions -  °F | °C
As of 1:56 PM on Wednesday 26 Nov 2014 (Local Time) from KGON Reporting Station
Moderate Rain Moderate Rain  
Wind Chill: 26°   Ceiling: 4500
Heat Index: 36°   Visibility: 1.2mi
Dew Point: 36°   Wind: 16mph
Humidity: 100%   Direction: 10°N
Pressure: 29.96"   Gusts: 29mph
Location:  41.51°N, 72.01°W
Report Text: KGON 261856Z 01014G25KT 1 1/4SM RA BR FEW009 BKN045 OVC070 02/02 A2996 RMK AO2 SLP145 P0012 T00220022
Loading
Personal Weather Stations






























Interactive Weather Map New forecast layout! Learn more

10-Day Weather Forecast

Advertisements
Track Severe Weather on mobile